Aérodrome :







RETROUVEZ-NOUS SUR...

 
LOGIN :

S'inscrire | Disclaimer

   EN    FR    IT 

 









Légende :    VFR   VFR Marginal   IFR   IFR Intensif   IFR Très Intensif
Visi : 
Plafond : 
>= 8 km
>= 3000ft
5 à 8 km
1000 à 3000 ft
1500m à 5 km
500 à 1000 ft
800 à 1500m
200 à 500 ft
< 800m
< 200 ft
Symboles :   Orages  Brouillard  Fortes neiges  Fortes précipitations  Vent > 20 kt






- Altitude de l'aérodrome : 76 ft
- Code IATA : PWM


KPWM - Portland International Jetport

DERNIER METAR :
  • 071251Z VRB03KT 10SM FEW120 SCT150 BKN200 23/13 A3020 RMK AO2 SLP228 T02280133

METARs EXPIRÉS :
  • 071151Z 36003KT 10SM FEW150 BKN250 21/14 A3019 RMK AO2 SLP224 T02060144 10206 20150 51010
  • 071051Z 00000KT 10SM FEW150 SCT250 18/14 A3019 RMK AO2 SLP222 T01780139

TAF KPWM
Valide du 07 à 12h jusqu'au 08 à 12h UTC


071120Z 0712/0812 30003KT P6SM SCT250
FM071600 15008KT P6SM BKN250
FM080000 18004KT P6SM SCT100 BKN250
FM080600 00000KT P6SM OVC100
FIR KZBW / Amérique du Nord



MET'MAP, la Météo Aéronautique d'un coup d'oeil ! - Copyright ORBIFLY Décembre 2007 - Disclaimer

ORBIFLY MET'MAP TEAM :

Programmation & Développement : Alexandra Zaïnal
Sur une idée originale de : Baudouin d'Aumeries
Assistance à la programmation : Marc-Olivier Méhu
Soutien technique & logistique : Manuel Goepfert

Contact : metmap@orbifly.com




SOURCES & CREDITS :

   NOAA